createdAt,value
2018-11-29T00:00:34.729Z,5.80
2018-11-29T00:03:03.608Z,6.90
2018-11-29T00:05:32.892Z,6.90
2018-11-29T00:08:01.997Z,7.50
2018-11-29T00:10:30.656Z,7.20
2018-11-29T00:12:59.492Z,8.23
2018-11-29T00:15:28.064Z,7.37
2018-11-29T00:17:56.720Z,6.97
2018-11-29T00:20:25.628Z,7.63
2018-11-29T00:22:54.627Z,8.90
2018-11-29T00:25:23.453Z,8.20
2018-11-29T00:27:52.601Z,8.47
2018-11-29T00:30:22.112Z,7.60
2018-11-29T00:32:51.785Z,7.90
2018-11-29T00:35:20.436Z,8.57
2018-11-29T00:37:49.120Z,8.97
2018-11-29T00:40:18.585Z,9.10
2018-11-29T00:42:47.194Z,9.30
2018-11-29T00:45:17.921Z,8.93
2018-11-29T00:47:47.628Z,9.00
2018-11-29T00:50:17.032Z,7.47
2018-11-29T00:52:46.785Z,7.63
2018-11-29T00:55:16.516Z,8.10
2018-11-29T00:57:46.008Z,6.97
2018-11-29T01:00:19.955Z,6.87
2018-11-29T01:02:48.554Z,7.13
2018-11-29T01:05:17.616Z,7.60
2018-11-29T01:07:46.532Z,7.67
2018-11-29T01:10:16.130Z,6.27
2018-11-29T01:12:45.268Z,7.20
2018-11-29T01:15:15.245Z,5.92
2018-11-29T01:17:44.308Z,6.43
2018-11-29T01:20:14.884Z,3.73
2018-11-29T01:22:43.577Z,5.63
2018-11-29T01:25:13.312Z,5.13
2018-11-29T01:27:43.020Z,5.63
2018-11-29T01:30:12.632Z,4.73
2018-11-29T01:32:41.238Z,5.30
2018-11-29T01:35:10.896Z,5.80
2018-11-29T01:37:39.501Z,6.17
2018-11-29T01:40:10.908Z,5.83
2018-11-29T01:42:40.308Z,5.47
2018-11-29T01:45:08.948Z,4.60
2018-11-29T01:47:37.568Z,4.97
2018-11-29T01:50:06.539Z,6.10
2018-11-29T01:52:35.152Z,6.47
2018-11-29T01:55:03.788Z,6.63
2018-11-29T01:57:33.004Z,6.40
2018-11-29T02:00:02.019Z,6.07
2018-11-29T02:02:30.640Z,6.87
2018-11-29T02:04:59.220Z,7.27
2018-11-29T02:07:27.868Z,7.50
2018-11-29T02:10:01.987Z,7.40
2018-11-29T02:12:30.872Z,8.73
2018-11-29T02:14:59.458Z,8.93
2018-11-29T02:17:28.076Z,8.10
2018-11-29T02:19:57.139Z,8.17
2018-11-29T02:22:25.705Z,8.77
2018-11-29T02:24:54.620Z,7.53
2018-11-29T02:27:23.180Z,6.70
2018-11-29T02:29:51.740Z,7.93
2018-11-29T02:32:20.348Z,6.97
2018-11-29T02:34:48.956Z,5.60
2018-11-29T02:37:18.122Z,6.67
2018-11-29T02:39:47.453Z,7.40
2018-11-29T02:42:16.032Z,7.37
2018-11-29T02:44:44.956Z,7.40
2018-11-29T02:47:13.559Z,7.57
2018-11-29T02:49:42.261Z,8.27
2018-11-29T02:52:11.192Z,8.47
2018-11-29T02:54:39.784Z,7.27
2018-11-29T02:57:09.268Z,8.23
2018-11-29T02:59:37.837Z,7.30
2018-11-29T03:02:06.504Z,7.70
2018-11-29T03:04:35.396Z,8.80
2018-11-29T03:07:04.780Z,8.90
2018-11-29T03:09:33.388Z,8.23
2018-11-29T03:12:01.972Z,8.90
2018-11-29T03:14:30.733Z,8.57
2018-11-29T03:16:59.445Z,8.47
2018-11-29T03:19:28.025Z,9.50
2018-11-29T03:21:56.621Z,8.03
2018-11-29T03:24:25.285Z,11.03
2018-11-29T03:26:54.432Z,10.73
2018-11-29T03:29:23.078Z,10.03
2018-11-29T03:31:52.123Z,9.50
2018-11-29T03:34:21.091Z,10.50
2018-11-29T03:36:49.713Z,8.13
2018-11-29T03:39:18.372Z,10.47
2018-11-29T03:41:47.315Z,9.87
2018-11-29T03:44:15.912Z,9.50
2018-11-29T03:46:44.820Z,9.20
2018-11-29T03:49:13.771Z,11.55
2018-11-29T03:51:42.366Z,10.47
2018-11-29T03:54:11.261Z,9.97
2018-11-29T03:56:39.844Z,10.87
2018-11-29T03:59:09.004Z,10.10
2018-11-29T04:01:37.875Z,10.53
2018-11-29T04:04:06.517Z,10.40
2018-11-29T04:06:35.420Z,9.27
2018-11-29T04:09:10.536Z,9.80
2018-11-29T04:11:39.147Z,9.30
2018-11-29T04:14:07.875Z,8.83
2018-11-29T04:16:37.083Z,8.93
2018-11-29T04:19:06.095Z,10.13
2018-11-29T04:21:34.703Z,8.47
2018-11-29T04:24:03.651Z,5.70
2018-11-29T04:26:32.627Z,5.17
2018-11-29T04:29:01.579Z,9.37
2018-11-29T04:31:30.207Z,10.00
2018-11-29T04:33:59.360Z,8.07
2018-11-29T04:36:28.943Z,7.93
2018-11-29T04:38:57.504Z,10.33
2018-11-29T04:41:26.135Z,9.07
2018-11-29T04:43:55.167Z,11.00
2018-11-29T04:46:54.315Z,10.17
2018-11-29T04:49:22.980Z,10.67
2018-11-29T04:51:51.955Z,10.60
2018-11-29T04:54:20.520Z,10.77
2018-11-29T04:56:49.499Z,9.50
2018-11-29T04:59:19.199Z,11.20
2018-11-29T05:01:48.219Z,7.47
2018-11-29T05:04:16.799Z,11.00
2018-11-29T05:06:45.385Z,9.27
2018-11-29T05:09:13.980Z,12.03
2018-11-29T05:11:43.123Z,12.60
2018-11-29T05:14:11.723Z,12.47
2018-11-29T05:16:40.622Z,13.57
2018-11-29T05:19:09.245Z,14.47
2018-11-29T05:21:37.814Z,15.60
2018-11-29T05:24:06.962Z,15.27
2018-11-29T05:26:35.602Z,15.80
2018-11-29T05:29:05.278Z,14.13
2018-11-29T05:31:33.863Z,13.63
2018-11-29T05:34:02.510Z,12.53
2018-11-29T05:36:31.526Z,15.03
2018-11-29T05:39:00.102Z,18.00
2018-11-29T05:41:28.694Z,16.03
2018-11-29T05:43:57.622Z,15.13
2018-11-29T05:46:26.690Z,14.33
2018-11-29T05:48:55.410Z,16.37
2018-11-29T05:51:24.286Z,16.13
2018-11-29T05:53:52.906Z,15.60
2018-11-29T05:56:21.466Z,12.30
2018-11-29T05:58:50.383Z,12.27
2018-11-29T06:01:23.489Z,10.50
2018-11-29T06:03:52.416Z,10.40
2018-11-29T06:06:21.740Z,9.33
2018-11-29T06:08:50.372Z,10.17
2018-11-29T06:11:19.284Z,12.10
2018-11-29T06:13:47.848Z,10.40
2018-11-29T06:16:16.480Z,9.03
2018-11-29T06:18:45.039Z,10.57
2018-11-29T06:21:13.632Z,11.90
2018-11-29T06:23:42.298Z,11.73
2018-11-29T06:26:11.087Z,13.10
2018-11-29T06:28:41.271Z,13.80
2018-11-29T06:31:10.319Z,15.20
2018-11-29T06:33:38.899Z,15.50
2018-11-29T06:36:07.631Z,14.33
2018-11-29T06:38:36.356Z,13.43
2018-11-29T06:41:05.458Z,11.13
2018-11-29T06:43:34.055Z,10.57
2018-11-29T06:46:02.702Z,10.03
2018-11-29T06:48:31.499Z,9.87
2018-11-29T06:51:00.098Z,7.67
2018-11-29T06:53:34.699Z,9.00
2018-11-29T06:56:03.791Z,8.40
2018-11-29T06:58:32.358Z,9.50
2018-11-29T07:01:01.306Z,9.17
2018-11-29T07:03:30.223Z,9.53
2018-11-29T07:05:58.833Z,8.30
2018-11-29T07:08:27.443Z,9.17
2018-11-29T07:10:56.130Z,6.97
2018-11-29T07:13:24.890Z,9.43
2018-11-29T07:15:53.538Z,9.90
2018-11-29T07:18:22.208Z,9.57
2018-11-29T07:21:02.050Z,10.00
2018-11-29T07:23:31.250Z,7.60
2018-11-29T07:26:00.706Z,10.33
2018-11-29T07:28:29.466Z,8.03
2018-11-29T07:30:58.066Z,9.23
2018-11-29T07:33:27.238Z,8.77
2018-11-29T07:35:55.894Z,8.73
2018-11-29T07:38:24.626Z,10.43
2018-11-29T07:40:54.001Z,11.30
2018-11-29T07:43:22.614Z,8.23
2018-11-29T07:45:51.522Z,8.87
2018-11-29T07:48:20.193Z,9.43
2018-11-29T07:50:48.818Z,11.40
2018-11-29T07:53:17.402Z,8.83
2018-11-29T07:55:46.150Z,8.00
2018-11-29T07:58:15.172Z,9.60
2018-11-29T08:00:43.782Z,8.60
2018-11-29T08:03:12.728Z,8.63
2018-11-29T08:05:41.277Z,9.43
2018-11-29T08:08:10.237Z,9.80
2018-11-29T08:10:39.673Z,9.40
2018-11-29T08:13:08.486Z,8.20
2018-11-29T08:15:37.149Z,6.33
2018-11-29T08:18:06.684Z,7.33
2018-11-29T08:20:35.245Z,6.77
2018-11-29T08:23:05.063Z,6.80
2018-11-29T08:25:33.561Z,7.73
2018-11-29T08:28:02.373Z,8.70
2018-11-29T08:30:30.905Z,6.20
2018-11-29T08:32:59.665Z,6.57
2018-11-29T08:35:28.163Z,7.83
2018-11-29T08:37:56.707Z,6.53
2018-11-29T08:40:25.185Z,6.40
2018-11-29T08:42:53.757Z,7.20
2018-11-29T08:45:22.341Z,8.23
2018-11-29T08:47:50.837Z,7.03
2018-11-29T08:50:19.821Z,6.67
2018-11-29T08:52:48.329Z,5.10
2018-11-29T08:55:17.813Z,6.00
2018-11-29T08:58:17.313Z,6.77
2018-11-29T09:00:45.777Z,4.47
2018-11-29T09:03:14.261Z,6.07
2018-11-29T09:05:43.117Z,6.30
2018-11-29T09:08:11.941Z,8.67
2018-11-29T09:10:40.465Z,7.40
2018-11-29T09:13:09.061Z,6.17
2018-11-29T09:15:37.537Z,6.27
2018-11-29T09:18:06.606Z,6.67
2018-11-29T09:20:35.369Z,6.00
2018-11-29T09:23:03.853Z,6.20
2018-11-29T09:25:32.364Z,6.33
2018-11-29T09:28:00.835Z,5.13
2018-11-29T09:30:29.320Z,6.40
2018-11-29T09:32:57.811Z,5.47
2018-11-29T09:35:26.289Z,6.80
2018-11-29T09:37:54.768Z,5.57
2018-11-29T09:40:23.269Z,6.30
2018-11-29T09:42:52.137Z,6.50
2018-11-29T09:45:23.363Z,6.43
2018-11-29T09:47:58.291Z,5.73
2018-11-29T09:50:26.967Z,5.03
2018-11-29T09:52:55.509Z,5.57
2018-11-29T09:55:23.985Z,5.97
2018-11-29T09:57:52.601Z,5.07
2018-11-29T10:00:28.112Z,5.78
2018-11-29T10:03:23.889Z,6.50
2018-11-29T10:05:52.684Z,5.33
2018-11-29T10:08:26.115Z,6.37
2018-11-29T10:10:49.757Z,5.97
2018-11-29T10:13:18.305Z,4.10
2018-11-29T10:15:47.289Z,6.63
2018-11-29T10:18:15.813Z,6.53
2018-11-29T10:20:44.294Z,6.40
2018-11-29T10:23:12.749Z,6.70
2018-11-29T10:25:41.720Z,6.63
2018-11-29T10:28:15.740Z,5.50
2018-11-29T10:30:47.518Z,6.70
2018-11-29T10:33:16.006Z,8.53
2018-11-29T10:35:44.566Z,5.87
2018-11-29T10:38:13.317Z,7.20
2018-11-29T10:40:42.313Z,6.17
2018-11-29T10:43:11.085Z,4.70
2018-11-29T10:45:40.429Z,4.47
2018-11-29T10:48:14.573Z,5.20
2018-11-29T10:50:43.097Z,6.33
2018-11-29T10:53:11.984Z,7.03
2018-11-29T10:55:40.521Z,4.40
2018-11-29T10:58:09.261Z,6.97
2018-11-29T11:01:45.229Z,5.97
2018-11-29T11:04:14.033Z,7.47
2018-11-29T11:06:42.808Z,8.83
2018-11-29T11:09:11.335Z,7.03
2018-11-29T11:11:40.764Z,5.67
2018-11-29T11:14:09.240Z,5.03
2018-11-29T11:16:37.965Z,6.43
2018-11-29T11:19:06.433Z,5.60
2018-11-29T11:21:34.913Z,6.57
2018-11-29T11:24:03.425Z,6.60
2018-11-29T11:26:31.901Z,6.47
2018-11-29T11:29:00.759Z,5.87
2018-11-29T11:31:31.223Z,6.13
2018-11-29T11:33:57.956Z,6.50
2018-11-29T11:36:26.560Z,6.87
2018-11-29T11:38:55.133Z,6.43
2018-11-29T11:41:24.233Z,6.37
2018-11-29T11:43:52.712Z,8.50
2018-11-29T11:46:21.792Z,9.25
2018-11-29T11:48:50.712Z,6.83
2018-11-29T11:51:19.357Z,9.53
2018-11-29T11:53:48.220Z,9.83
2018-11-29T11:56:16.699Z,8.63
2018-11-29T11:58:45.556Z,7.60
2018-11-29T12:01:14.068Z,7.97
2018-11-29T12:03:42.807Z,8.17
2018-11-29T12:06:11.577Z,8.77
2018-11-29T12:08:40.117Z,9.50
2018-11-29T12:11:08.676Z,10.43
2018-11-29T12:13:37.153Z,5.20
2018-11-29T12:16:05.999Z,10.30
2018-11-29T12:18:34.604Z,9.80
2018-11-29T12:21:03.076Z,7.13
2018-11-29T12:23:31.581Z,7.63
2018-11-29T12:26:00.148Z,11.10
2018-11-29T12:28:28.704Z,9.53
2018-11-29T12:30:57.206Z,11.97
2018-11-29T12:33:25.724Z,9.67
2018-11-29T12:35:54.520Z,10.83
2018-11-29T12:38:23.045Z,10.50
2018-11-29T12:40:51.965Z,10.40
2018-11-29T12:43:20.496Z,11.40
2018-11-29T12:45:49.028Z,10.57
2018-11-29T12:48:17.632Z,11.60
2018-11-29T12:50:46.258Z,11.27
2018-11-29T12:53:15.088Z,11.93
2018-11-29T12:55:44.687Z,12.43
2018-11-29T12:58:13.168Z,10.97
2018-11-29T13:00:41.630Z,12.17
2018-11-29T13:03:11.102Z,9.83
2018-11-29T13:05:39.750Z,10.37
2018-11-29T13:08:09.110Z,9.70
2018-11-29T13:10:37.619Z,11.80
2018-11-29T13:13:07.062Z,10.77
2018-11-29T13:15:35.932Z,8.77
2018-11-29T13:18:08.733Z,8.63
2018-11-29T13:20:37.445Z,8.93
2018-11-29T13:23:06.602Z,10.10
2018-11-29T13:25:35.141Z,9.13
2018-11-29T13:28:04.551Z,10.97
2018-11-29T13:30:33.505Z,9.90
2018-11-29T13:33:02.006Z,10.53
2018-11-29T13:35:34.530Z,11.77
2018-11-29T13:38:05.871Z,9.43
2018-11-29T13:40:34.326Z,11.57
2018-11-29T13:43:02.937Z,10.77
2018-11-29T13:45:31.498Z,9.97
2018-11-29T13:48:00.015Z,9.83
2018-11-29T13:50:28.817Z,10.17
2018-11-29T13:52:57.538Z,11.03
2018-11-29T13:55:26.241Z,9.27
2018-11-29T13:57:54.981Z,9.93
2018-11-29T14:00:24.128Z,9.50
2018-11-29T14:02:54.877Z,10.10
2018-11-29T14:05:23.901Z,10.20
2018-11-29T14:07:52.918Z,11.97
2018-11-29T14:10:22.880Z,13.00
2018-11-29T14:12:55.157Z,11.23
2018-11-29T14:15:25.209Z,10.73
2018-11-29T14:17:54.121Z,10.47
2018-11-29T14:20:23.073Z,9.73
2018-11-29T14:22:51.725Z,10.83
2018-11-29T14:25:20.281Z,10.33
2018-11-29T14:27:51.285Z,8.80
2018-11-29T14:30:23.964Z,10.83
2018-11-29T14:32:53.421Z,8.97
2018-11-29T14:35:22.158Z,10.33
2018-11-29T14:37:50.725Z,8.13
2018-11-29T14:40:20.539Z,9.30
2018-11-29T14:42:49.488Z,9.00
2018-11-29T14:45:19.051Z,9.60
2018-11-29T14:47:47.668Z,10.03
2018-11-29T14:50:34.965Z,9.70
2018-11-29T14:53:03.569Z,9.20
2018-11-29T14:55:32.128Z,8.30
2018-11-29T14:58:00.756Z,8.17
2018-11-29T15:00:29.627Z,9.37
2018-11-29T15:02:59.335Z,6.40
2018-11-29T15:05:30.119Z,9.27
2018-11-29T15:07:58.823Z,10.10
2018-11-29T15:10:27.539Z,8.67
2018-11-29T15:12:56.139Z,9.90
2018-11-29T15:15:25.083Z,8.67
2018-11-29T15:17:54.611Z,7.90
2018-11-29T15:20:27.687Z,8.40
2018-11-29T15:22:56.658Z,9.53
2018-11-29T15:25:25.270Z,9.50
2018-11-29T15:27:53.891Z,7.97
2018-11-29T15:30:23.195Z,9.13
2018-11-29T15:32:53.598Z,7.60
2018-11-29T15:35:22.183Z,9.17
2018-11-29T15:37:50.730Z,8.97
2018-11-29T15:40:21.146Z,8.50
2018-11-29T15:42:49.795Z,7.37
2018-11-29T15:45:19.542Z,7.37
2018-11-29T15:47:48.306Z,7.33
2018-11-29T15:50:17.142Z,8.57
2018-11-29T15:52:46.051Z,8.47
2018-11-29T15:55:15.524Z,8.63
2018-11-29T15:57:44.638Z,9.77
2018-11-29T16:00:15.643Z,8.93
2018-11-29T16:02:45.103Z,8.67
2018-11-29T16:05:13.919Z,8.80
2018-11-29T16:07:42.757Z,8.67
2018-11-29T16:10:14.133Z,7.47
2018-11-29T16:12:42.772Z,6.37
2018-11-29T16:15:13.375Z,7.25
2018-11-29T16:17:42.428Z,7.43
2018-11-29T16:20:13.460Z,8.40
2018-11-29T16:22:42.248Z,7.57
2018-11-29T16:25:11.492Z,9.20
2018-11-29T16:27:40.132Z,6.47
2018-11-29T16:30:43.409Z,7.73
2018-11-29T16:33:18.293Z,8.97
2018-11-29T16:35:46.977Z,7.73
2018-11-29T16:38:15.699Z,7.53
2018-11-29T16:40:44.541Z,8.60
2018-11-29T16:43:13.129Z,8.17
2018-11-29T16:45:41.725Z,7.77
2018-11-29T16:48:10.629Z,5.70
2018-11-29T16:50:39.744Z,7.73
2018-11-29T16:53:08.669Z,7.40
2018-11-29T16:55:37.889Z,7.13
2018-11-29T16:58:12.753Z,7.13
2018-11-29T17:00:41.514Z,7.90
2018-11-29T17:03:10.362Z,7.87
2018-11-29T17:05:39.017Z,7.40
2018-11-29T17:08:07.883Z,5.93
2018-11-29T17:10:36.849Z,8.20
2018-11-29T17:13:12.280Z,6.90
2018-11-29T17:15:40.843Z,7.30
2018-11-29T17:18:09.788Z,6.97
2018-11-29T17:20:38.472Z,7.00
2018-11-29T17:23:09.292Z,6.83
2018-11-29T17:25:37.932Z,7.33
2018-11-29T17:28:07.208Z,6.90
2018-11-29T17:30:36.377Z,7.77
2018-11-29T17:33:05.520Z,6.87
2018-11-29T17:35:34.374Z,7.77
2018-11-29T17:38:05.168Z,7.57
2018-11-29T17:40:34.026Z,5.57
2018-11-29T17:43:02.632Z,6.97
2018-11-29T17:45:31.401Z,7.10
2018-11-29T17:48:01.336Z,7.50
2018-11-29T17:50:32.049Z,6.40
2018-11-29T17:53:00.648Z,6.53
2018-11-29T17:55:29.636Z,6.80
2018-11-29T17:57:58.236Z,7.67
2018-11-29T18:00:29.272Z,6.90
2018-11-29T18:02:57.880Z,7.93
2018-11-29T18:05:26.444Z,7.77
2018-11-29T18:07:55.272Z,7.80
2018-11-29T18:10:26.943Z,5.67
2018-11-29T18:12:58.172Z,7.03
2018-11-29T18:15:29.347Z,8.20
2018-11-29T18:17:58.005Z,6.77
2018-11-29T18:20:26.748Z,6.77
2018-11-29T18:22:55.295Z,8.23
2018-11-29T18:25:23.895Z,8.43
2018-11-29T18:27:52.697Z,6.80
2018-11-29T18:30:22.043Z,5.62
2018-11-29T18:32:50.923Z,8.33
2018-11-29T18:35:19.547Z,6.92
2018-11-29T18:37:48.170Z,6.73
2018-11-29T18:40:19.987Z,6.30
2018-11-29T18:42:51.807Z,7.37
2018-11-29T18:45:20.844Z,7.37
2018-11-29T18:47:50.410Z,8.20
2018-11-29T18:50:19.891Z,7.67
2018-11-29T18:52:48.740Z,8.30
2018-11-29T18:55:17.627Z,8.60
2018-11-29T18:57:46.555Z,8.40
2018-11-29T19:00:18.785Z,6.13
2018-11-29T19:02:47.403Z,5.90
2018-11-29T19:05:16.102Z,7.47
2018-11-29T19:07:49.485Z,7.67
2018-11-29T19:10:21.600Z,7.53
2018-11-29T19:12:55.848Z,6.83
2018-11-29T19:15:24.602Z,7.13
2018-11-29T19:17:53.178Z,8.40
2018-11-29T19:20:22.051Z,7.40
2018-11-29T19:22:51.405Z,9.43
2018-11-29T19:25:20.578Z,7.40
2018-11-29T19:27:49.950Z,7.17
2018-11-29T19:30:21.479Z,8.08
2018-11-29T19:32:51.797Z,6.67
2018-11-29T19:35:20.320Z,7.97
2018-11-29T19:37:52.045Z,6.83
2018-11-29T19:40:20.578Z,6.53
2018-11-29T19:42:49.233Z,7.60
2018-11-29T19:45:17.826Z,7.83
2018-11-29T19:47:46.290Z,6.57
2018-11-29T19:50:17.950Z,8.60
2018-11-29T19:52:48.894Z,6.97
2018-11-29T19:55:19.114Z,7.10
2018-11-29T19:57:47.658Z,7.20
2018-11-29T20:00:16.334Z,7.80
2018-11-29T20:02:45.724Z,9.27
2018-11-29T20:05:14.280Z,8.10
2018-11-29T20:07:42.784Z,7.87
2018-11-29T20:10:14.123Z,8.20
2018-11-29T20:12:42.822Z,7.67
2018-11-29T20:15:14.113Z,7.67
2018-11-29T20:17:42.583Z,7.37
2018-11-29T20:20:11.980Z,7.60
2018-11-29T20:22:40.941Z,8.00
2018-11-29T20:25:14.885Z,7.37
2018-11-29T20:27:43.461Z,6.67
2018-11-29T20:30:13.656Z,8.70
2018-11-29T20:32:42.180Z,7.83
2018-11-29T20:35:11.480Z,8.83
2018-11-29T20:37:40.179Z,7.57
2018-11-29T20:40:22.640Z,7.57
2018-11-29T20:42:52.255Z,8.20
2018-11-29T20:45:23.371Z,7.93
2018-11-29T20:47:51.873Z,7.60
2018-11-29T20:50:21.579Z,9.10
2018-11-29T20:52:51.291Z,7.60
2018-11-29T20:55:23.680Z,9.17
2018-11-29T20:57:52.583Z,8.83
2018-11-29T21:00:21.775Z,8.17
2018-11-29T21:02:51.111Z,8.63
2018-11-29T21:05:20.824Z,8.40
2018-11-29T21:07:51.086Z,8.20
2018-11-29T21:10:26.378Z,8.95
2018-11-29T21:12:55.167Z,6.60
2018-11-29T21:15:23.723Z,9.57
2018-11-29T21:17:52.387Z,8.90
2018-11-29T21:20:21.396Z,9.17
2018-11-29T21:22:50.972Z,9.20
2018-11-29T21:25:23.804Z,8.97
2018-11-29T21:27:52.480Z,9.00
2018-11-29T21:30:21.092Z,7.83
2018-11-29T21:32:50.586Z,6.63
2018-11-29T21:35:22.316Z,8.17
2018-11-29T21:37:52.270Z,8.93
2018-11-29T21:40:23.184Z,9.63
2018-11-29T21:42:51.684Z,7.77
2018-11-29T21:45:20.500Z,6.67
2018-11-29T21:47:49.041Z,7.40
2018-11-29T21:50:17.678Z,7.33
2018-11-29T21:52:46.208Z,7.50
2018-11-29T21:55:14.798Z,7.17
2018-11-29T21:57:43.428Z,7.60
2018-11-29T22:00:14.545Z,7.20
2018-11-29T22:02:44.748Z,8.17
2018-11-29T22:05:13.351Z,8.30
2018-11-29T22:07:41.851Z,8.13
2018-11-29T22:10:10.371Z,7.20
2018-11-29T22:12:39.335Z,8.37
2018-11-29T22:15:10.840Z,8.37
2018-11-29T22:18:42.611Z,7.37
2018-11-29T22:21:11.211Z,8.90
2018-11-29T22:23:40.664Z,6.57
2018-11-29T22:26:11.763Z,6.10
2018-11-29T22:28:40.875Z,7.63
2018-11-29T22:31:09.355Z,7.67
2018-11-29T22:33:38.022Z,7.50
2018-11-29T22:36:06.714Z,8.80
2018-11-29T22:38:35.210Z,6.90
2018-11-29T22:41:03.705Z,7.63
2018-11-29T22:43:32.328Z,7.90
2018-11-29T22:46:00.870Z,7.47
2018-11-29T22:48:29.342Z,9.83
2018-11-29T22:50:57.915Z,7.27
2018-11-29T22:53:28.513Z,7.23
2018-11-29T22:55:57.386Z,8.43
2018-11-29T22:58:25.994Z,7.93
2018-11-29T23:00:54.827Z,9.17
2018-11-29T23:03:23.338Z,8.03
2018-11-29T23:05:51.819Z,7.87
2018-11-29T23:08:20.446Z,7.53
2018-11-29T23:10:48.947Z,8.70
2018-11-29T23:13:17.423Z,8.73
2018-11-29T23:15:45.954Z,8.80
2018-11-29T23:18:14.445Z,7.20
2018-11-29T23:20:43.046Z,8.43
2018-11-29T23:23:12.063Z,7.80
2018-11-29T23:25:40.658Z,7.67
2018-11-29T23:28:09.115Z,8.17
2018-11-29T23:30:37.639Z,8.13
2018-11-29T23:33:06.155Z,8.87
2018-11-29T23:35:34.632Z,7.27
2018-11-29T23:38:03.209Z,8.63
2018-11-29T23:40:31.816Z,7.97
2018-11-29T23:43:00.340Z,8.50
2018-11-29T23:45:28.835Z,8.40
2018-11-29T23:47:57.320Z,8.40
2018-11-29T23:50:25.852Z,6.13
2018-11-29T23:52:54.355Z,7.83
2018-11-29T23:55:23.196Z,8.10
2018-11-29T23:57:51.959Z,8.83
